Decoded Metar for SCTE (PUERTO MONTT in CHILE) (IATA:PMC) | Meteo·Mobile Aviation Weather
aviador You're here:

SCTE Decoded Metar

PUERTO MONTT in CHILE
Report Time2018-09-24 07:00:00
UTC Time2018-09-24 07:46:03
Flight Rules vfr VFR
WindCalm
Visibility9999 m
Phenomena:N/A
Clouds:Broken 035 Hf
Broken 040 Hf
Expected CloudBase > 400 ft AGL from Temp-Dew spread
Ceiling3,500 ft
Temp05°C (ISA -9)
Dew Point04°C (93% RH)
AAT3.7°C
QNH1020 hPa
Density Alt-984 ft
Elevation282 ft
Report Wrong Elevation
Raw Report
SCTE 240700Z 00000KT 9999 BKN035 BKN040 05/04 Q1020 NOSIG=

Extra information for SCTE:More info

Metar Taf Metar & Taf Last 4 Metars F.Rules Stats Wind Profile Meteogram Temp Stats Airport Information Weather charts Add Link Nearby VenuesMetar ALERT Operation Metar Decoded Social comments